sensor_id;sensor_type;location;lat;lon;timestamp;P1;durP1;ratioP1;P2;durP2;ratioP2
68315;SDS011;55508;54.368;18.406;2022-08-04T00:00:08;2.78;;;2.10;;
68315;SDS011;55508;54.368;18.406;2022-08-04T00:08:18;4.85;;;2.30;;
68315;SDS011;55508;54.368;18.406;2022-08-04T00:11:14;3.65;;;2.10;;
68315;SDS011;55508;54.368;18.406;2022-08-04T00:13:53;8.50;;;2.40;;
68315;SDS011;55508;54.368;18.406;2022-08-04T00:16:30;4.95;;;2.40;;
68315;SDS011;55508;54.368;18.406;2022-08-04T00:19:17;4.65;;;2.20;;
68315;SDS011;55508;54.368;18.406;2022-08-04T00:21:51;5.30;;;2.22;;
68315;SDS011;55508;54.368;18.406;2022-08-04T00:26:51;4.43;;;2.30;;
68315;SDS011;55508;54.368;18.406;2022-08-04T00:29:20;2.65;;;2.25;;
68315;SDS011;55508;54.368;18.406;2022-08-04T00:31:48;3.20;;;2.13;;
68315;SDS011;55508;54.368;18.406;2022-08-04T00:34:26;3.13;;;2.28;;
68315;SDS011;55508;54.368;18.406;2022-08-04T00:36:55;5.63;;;2.00;;
68315;SDS011;55508;54.368;18.406;2022-08-04T00:39:23;3.22;;;1.90;;
68315;SDS011;55508;54.368;18.406;2022-08-04T00:47:21;2.42;;;2.10;;
68315;SDS011;55508;54.368;18.406;2022-08-04T00:50:10;2.78;;;2.10;;
68315;SDS011;55508;54.368;18.406;2022-08-04T01:01:04;2.33;;;2.13;;
68315;SDS011;55508;54.368;18.406;2022-08-04T01:03:36;2.40;;;1.98;;
68315;SDS011;55508;54.368;18.406;2022-08-04T01:06:37;3.22;;;2.20;;
68315;SDS011;55508;54.368;18.406;2022-08-04T01:12:31;3.65;;;2.25;;
68315;SDS011;55508;54.368;18.406;2022-08-04T01:15:03;2.22;;;2.10;;
68315;SDS011;55508;54.368;18.406;2022-08-04T01:20:08;3.15;;;2.30;;
68315;SDS011;55508;54.368;18.406;2022-08-04T01:22:43;2.47;;;2.10;;
68315;SDS011;55508;54.368;18.406;2022-08-04T01:31:29;6.53;;;2.80;;
68315;SDS011;55508;54.368;18.406;2022-08-04T01:34:18;2.33;;;2.10;;
68315;SDS011;55508;54.368;18.406;2022-08-04T01:36:47;2.80;;;2.33;;
68315;SDS011;55508;54.368;18.406;2022-08-04T01:39:37;3.78;;;2.33;;
68315;SDS011;55508;54.368;18.406;2022-08-04T01:42:11;4.65;;;2.42;;
68315;SDS011;55508;54.368;18.406;2022-08-04T01:44:59;3.03;;;2.38;;
68315;SDS011;55508;54.368;18.406;2022-08-04T01:47:27;3.17;;;2.30;;
68315;SDS011;55508;54.368;18.406;2022-08-04T01:50:30;6.00;;;2.42;;
68315;SDS011;55508;54.368;18.406;2022-08-04T01:52:51;2.42;;;2.10;;
68315;SDS011;55508;54.368;18.406;2022-08-04T01:55:19;4.28;;;2.20;;
68315;SDS011;55508;54.368;18.406;2022-08-04T01:57:47;4.63;;;2.58;;
68315;SDS011;55508;54.368;18.406;2022-08-04T02:00:16;3.17;;;2.30;;
68315;SDS011;55508;54.368;18.406;2022-08-04T02:02:49;2.70;;;2.50;;
68315;SDS011;55508;54.368;18.406;2022-08-04T02:05:17;3.97;;;2.10;;
68315;SDS011;55508;54.368;18.406;2022-08-04T02:13:26;6.85;;;2.60;;
68315;SDS011;55508;54.368;18.406;2022-08-04T02:18:25;2.08;;;1.98;;
68315;SDS011;55508;54.368;18.406;2022-08-04T02:21:01;3.50;;;2.38;;
68315;SDS011;55508;54.368;18.406;2022-08-04T02:23:36;4.70;;;2.38;;
68315;SDS011;55508;54.368;18.406;2022-08-04T02:26:15;4.57;;;2.50;;
68315;SDS011;55508;54.368;18.406;2022-08-04T02:31:26;3.67;;;2.58;;
68315;SDS011;55508;54.368;18.406;2022-08-04T02:34:04;2.30;;;2.20;;
68315;SDS011;55508;54.368;18.406;2022-08-04T02:36:37;2.50;;;2.40;;
68315;SDS011;55508;54.368;18.406;2022-08-04T02:39:07;3.67;;;2.35;;
68315;SDS011;55508;54.368;18.406;2022-08-04T02:41:35;2.60;;;2.40;;
68315;SDS011;55508;54.368;18.406;2022-08-04T02:44:03;6.32;;;2.45;;
68315;SDS011;55508;54.368;18.406;2022-08-04T02:46:33;2.90;;;2.70;;
68315;SDS011;55508;54.368;18.406;2022-08-04T02:49:05;3.03;;;2.63;;
68315;SDS011;55508;54.368;18.406;2022-08-04T02:51:34;3.90;;;2.10;;
68315;SDS011;55508;54.368;18.406;2022-08-04T02:54:03;3.55;;;2.70;;
68315;SDS011;55508;54.368;18.406;2022-08-04T02:56:32;2.83;;;2.60;;
68315;SDS011;55508;54.368;18.406;2022-08-04T02:59:03;3.65;;;2.70;;
68315;SDS011;55508;54.368;18.406;2022-08-04T03:01:32;2.95;;;2.72;;
68315;SDS011;55508;54.368;18.406;2022-08-04T03:15:50;5.60;;;2.78;;
68315;SDS011;55508;54.368;18.406;2022-08-04T03:18:36;2.78;;;2.58;;
68315;SDS011;55508;54.368;18.406;2022-08-04T03:52:24;3.20;;;2.90;;
68315;SDS011;55508;54.368;18.406;2022-08-04T03:58:05;5.07;;;3.80;;
68315;SDS011;55508;54.368;18.406;2022-08-04T04:23:08;22.73;;;3.25;;
68315;SDS011;55508;54.368;18.406;2022-08-04T04:38:12;6.57;;;3.53;;
68315;SDS011;55508;54.368;18.406;2022-08-04T04:48:57;7.40;;;4.47;;
68315;SDS011;55508;54.368;18.406;2022-08-04T04:51:43;13.35;;;5.18;;
68315;SDS011;55508;54.368;18.406;2022-08-04T04:54:25;16.10;;;5.22;;
68315;SDS011;55508;54.368;18.406;2022-08-04T04:59:48;8.25;;;3.60;;
68315;SDS011;55508;54.368;18.406;2022-08-04T05:13:48;10.55;;;3.35;;
68315;SDS011;55508;54.368;18.406;2022-08-04T05:16:40;6.88;;;3.60;;
68315;SDS011;55508;54.368;18.406;2022-08-04T05:24:30;6.00;;;3.40;;
68315;SDS011;55508;54.368;18.406;2022-08-04T05:27:01;5.35;;;3.22;;
68315;SDS011;55508;54.368;18.406;2022-08-04T05:29:35;5.57;;;3.00;;
68315;SDS011;55508;54.368;18.406;2022-08-04T05:32:08;5.72;;;3.25;;
68315;SDS011;55508;54.368;18.406;2022-08-04T05:34:39;9.50;;;3.10;;
68315;SDS011;55508;54.368;18.406;2022-08-04T05:39:40;6.78;;;3.05;;
68315;SDS011;55508;54.368;18.406;2022-08-04T05:42:12;9.02;;;3.00;;
68315;SDS011;55508;54.368;18.406;2022-08-04T05:44:40;5.15;;;2.80;;
68315;SDS011;55508;54.368;18.406;2022-08-04T05:47:13;7.20;;;2.67;;
68315;SDS011;55508;54.368;18.406;2022-08-04T05:49:41;9.50;;;2.83;;
68315;SDS011;55508;54.368;18.406;2022-08-04T05:52:09;11.27;;;3.30;;
68315;SDS011;55508;54.368;18.406;2022-08-04T05:54:36;3.55;;;2.80;;
68315;SDS011;55508;54.368;18.406;2022-08-04T05:57:04;3.85;;;2.70;;
68315;SDS011;55508;54.368;18.406;2022-08-04T05:59:32;2.95;;;2.65;;
68315;SDS011;55508;54.368;18.406;2022-08-04T06:02:00;31.45;;;4.53;;
68315;SDS011;55508;54.368;18.406;2022-08-04T06:04:36;4.20;;;2.85;;
68315;SDS011;55508;54.368;18.406;2022-08-04T06:07:05;5.07;;;3.20;;
68315;SDS011;55508;54.368;18.406;2022-08-04T06:09:32;6.88;;;3.08;;
68315;SDS011;55508;54.368;18.406;2022-08-04T06:12:01;6.63;;;3.00;;
68315;SDS011;55508;54.368;18.406;2022-08-04T06:14:43;9.65;;;3.22;;
68315;SDS011;55508;54.368;18.406;2022-08-04T06:17:12;13.57;;;3.45;;
68315;SDS011;55508;54.368;18.406;2022-08-04T06:20:02;7.65;;;3.13;;
68315;SDS011;55508;54.368;18.406;2022-08-04T06:22:49;5.53;;;3.22;;
68315;SDS011;55508;54.368;18.406;2022-08-04T06:25:20;7.23;;;3.10;;
68315;SDS011;55508;54.368;18.406;2022-08-04T06:27:48;3.92;;;3.00;;
68315;SDS011;55508;54.368;18.406;2022-08-04T06:30:16;5.30;;;2.60;;
68315;SDS011;55508;54.368;18.406;2022-08-04T06:32:45;8.63;;;3.15;;
68315;SDS011;55508;54.368;18.406;2022-08-04T06:35:15;15.68;;;3.60;;
68315;SDS011;55508;54.368;18.406;2022-08-04T06:37:46;3.75;;;2.88;;
68315;SDS011;55508;54.368;18.406;2022-08-04T06:40:18;4.13;;;3.03;;
68315;SDS011;55508;54.368;18.406;2022-08-04T06:42:59;2.65;;;2.45;;
68315;SDS011;55508;54.368;18.406;2022-08-04T06:45:27;3.78;;;2.92;;
68315;SDS011;55508;54.368;18.406;2022-08-04T06:47:55;5.13;;;2.45;;
68315;SDS011;55508;54.368;18.406;2022-08-04T06:50:23;3.85;;;2.65;;
68315;SDS011;55508;54.368;18.406;2022-08-04T06:53:10;2.90;;;2.70;;
68315;SDS011;55508;54.368;18.406;2022-08-04T06:55:38;3.03;;;2.60;;
68315;SDS011;55508;54.368;18.406;2022-08-04T06:58:07;5.63;;;2.85;;
68315;SDS011;55508;54.368;18.406;2022-08-04T07:00:35;6.72;;;3.00;;
68315;SDS011;55508;54.368;18.406;2022-08-04T07:03:05;4.22;;;2.80;;
68315;SDS011;55508;54.368;18.406;2022-08-04T07:05:33;8.88;;;2.70;;
68315;SDS011;55508;54.368;18.406;2022-08-04T07:08:00;4.03;;;2.63;;
68315;SDS011;55508;54.368;18.406;2022-08-04T07:10:28;3.10;;;2.55;;
68315;SDS011;55508;54.368;18.406;2022-08-04T07:12:56;5.53;;;2.80;;
68315;SDS011;55508;54.368;18.406;2022-08-04T07:15:24;4.97;;;2.63;;
68315;SDS011;55508;54.368;18.406;2022-08-04T07:17:52;5.80;;;2.63;;
68315;SDS011;55508;54.368;18.406;2022-08-04T07:20:20;3.08;;;2.30;;
68315;SDS011;55508;54.368;18.406;2022-08-04T07:23:02;10.98;;;2.60;;
68315;SDS011;55508;54.368;18.406;2022-08-04T07:25:30;4.32;;;2.25;;
68315;SDS011;55508;54.368;18.406;2022-08-04T07:28:18;5.55;;;2.50;;
68315;SDS011;55508;54.368;18.406;2022-08-04T07:30:47;5.38;;;2.42;;
68315;SDS011;55508;54.368;18.406;2022-08-04T07:33:15;2.40;;;2.30;;
68315;SDS011;55508;54.368;18.406;2022-08-04T07:35:44;4.22;;;2.40;;
68315;SDS011;55508;54.368;18.406;2022-08-04T07:38:33;3.83;;;2.50;;
68315;SDS011;55508;54.368;18.406;2022-08-04T07:41:03;6.93;;;2.88;;
68315;SDS011;55508;54.368;18.406;2022-08-04T07:43:51;4.45;;;2.75;;
68315;SDS011;55508;54.368;18.406;2022-08-04T07:46:20;4.88;;;2.15;;
68315;SDS011;55508;54.368;18.406;2022-08-04T07:48:47;4.43;;;2.60;;
68315;SDS011;55508;54.368;18.406;2022-08-04T07:51:15;2.75;;;2.50;;
68315;SDS011;55508;54.368;18.406;2022-08-04T07:53:43;2.92;;;2.63;;
68315;SDS011;55508;54.368;18.406;2022-08-04T07:56:21;9.65;;;2.83;;
68315;SDS011;55508;54.368;18.406;2022-08-04T07:58:48;9.27;;;2.60;;
68315;SDS011;55508;54.368;18.406;2022-08-04T08:01:16;4.38;;;2.65;;
68315;SDS011;55508;54.368;18.406;2022-08-04T08:03:44;4.53;;;2.55;;
68315;SDS011;55508;54.368;18.406;2022-08-04T08:06:12;5.20;;;2.05;;
68315;SDS011;55508;54.368;18.406;2022-08-04T08:08:57;3.53;;;2.22;;
68315;SDS011;55508;54.368;18.406;2022-08-04T08:11:40;5.00;;;2.50;;
68315;SDS011;55508;54.368;18.406;2022-08-04T08:14:28;2.50;;;2.30;;
68315;SDS011;55508;54.368;18.406;2022-08-04T08:16:59;3.03;;;2.30;;
68315;SDS011;55508;54.368;18.406;2022-08-04T08:19:30;2.67;;;2.30;;
68315;SDS011;55508;54.368;18.406;2022-08-04T08:21:58;5.45;;;2.40;;
68315;SDS011;55508;54.368;18.406;2022-08-04T08:24:28;6.30;;;2.45;;
68315;SDS011;55508;54.368;18.406;2022-08-04T08:26:56;5.78;;;2.33;;
68315;SDS011;55508;54.368;18.406;2022-08-04T08:29:24;5.28;;;2.05;;
68315;SDS011;55508;54.368;18.406;2022-08-04T08:31:51;5.57;;;3.30;;
68315;SDS011;55508;54.368;18.406;2022-08-04T08:34:25;10.68;;;6.47;;
68315;SDS011;55508;54.368;18.406;2022-08-04T08:36:57;9.15;;;6.15;;
68315;SDS011;55508;54.368;18.406;2022-08-04T08:39:29;2.97;;;2.60;;
68315;SDS011;55508;54.368;18.406;2022-08-04T08:44:56;2.80;;;2.60;;
68315;SDS011;55508;54.368;18.406;2022-08-04T08:59:26;4.90;;;2.85;;
68315;SDS011;55508;54.368;18.406;2022-08-04T09:10:46;4.38;;;2.00;;
68315;SDS011;55508;54.368;18.406;2022-08-04T09:13:49;3.38;;;1.95;;
68315;SDS011;55508;54.368;18.406;2022-08-04T09:16:23;4.40;;;2.28;;
68315;SDS011;55508;54.368;18.406;2022-08-04T09:30:03;3.63;;;2.05;;
68315;SDS011;55508;54.368;18.406;2022-08-04T09:37:41;3.97;;;2.22;;
68315;SDS011;55508;54.368;18.406;2022-08-04T09:40:19;12.63;;;2.10;;
68315;SDS011;55508;54.368;18.406;2022-08-04T09:46:29;3.88;;;2.15;;
68315;SDS011;55508;54.368;18.406;2022-08-04T09:49:06;2.40;;;2.20;;
68315;SDS011;55508;54.368;18.406;2022-08-04T09:54:32;2.22;;;2.10;;
68315;SDS011;55508;54.368;18.406;2022-08-04T10:00:00;1.90;;;1.80;;
68315;SDS011;55508;54.368;18.406;2022-08-04T10:02:38;10.25;;;2.70;;
68315;SDS011;55508;54.368;18.406;2022-08-04T10:05:13;3.80;;;2.00;;
68315;SDS011;55508;54.368;18.406;2022-08-04T10:10:49;5.07;;;2.20;;
68315;SDS011;55508;54.368;18.406;2022-08-04T10:25:29;2.58;;;2.38;;
68315;SDS011;55508;54.368;18.406;2022-08-04T10:28:25;2.75;;;2.40;;
68315;SDS011;55508;54.368;18.406;2022-08-04T10:30:54;3.50;;;2.38;;
68315;SDS011;55508;54.368;18.406;2022-08-04T10:33:59;4.18;;;2.42;;
68315;SDS011;55508;54.368;18.406;2022-08-04T10:36:21;4.35;;;2.30;;
68315;SDS011;55508;54.368;18.406;2022-08-04T10:38:59;5.80;;;2.58;;
68315;SDS011;55508;54.368;18.406;2022-08-04T10:47:33;3.00;;;2.33;;
68315;SDS011;55508;54.368;18.406;2022-08-04T10:50:02;4.88;;;2.10;;
68315;SDS011;55508;54.368;18.406;2022-08-04T10:52:32;2.78;;;2.25;;
68315;SDS011;55508;54.368;18.406;2022-08-04T10:57:54;9.40;;;2.50;;
68315;SDS011;55508;54.368;18.406;2022-08-04T11:00:27;4.82;;;2.10;;
68315;SDS011;55508;54.368;18.406;2022-08-04T11:02:57;4.13;;;2.13;;
68315;SDS011;55508;54.368;18.406;2022-08-04T11:05:51;6.65;;;2.08;;
68315;SDS011;55508;54.368;18.406;2022-08-04T11:08:28;5.07;;;2.30;;
68315;SDS011;55508;54.368;18.406;2022-08-04T11:13:48;4.03;;;1.80;;
68315;SDS011;55508;54.368;18.406;2022-08-04T11:22:25;4.38;;;2.00;;
68315;SDS011;55508;54.368;18.406;2022-08-04T11:27:27;4.95;;;1.92;;
68315;SDS011;55508;54.368;18.406;2022-08-04T11:29:59;13.07;;;2.67;;
68315;SDS011;55508;54.368;18.406;2022-08-04T11:38:30;3.80;;;2.17;;
68315;SDS011;55508;54.368;18.406;2022-08-04T11:41:06;10.73;;;2.42;;
68315;SDS011;55508;54.368;18.406;2022-08-04T11:43:41;3.53;;;2.30;;
68315;SDS011;55508;54.368;18.406;2022-08-04T11:46:31;10.05;;;2.75;;
68315;SDS011;55508;54.368;18.406;2022-08-04T11:49:05;4.38;;;2.50;;
68315;SDS011;55508;54.368;18.406;2022-08-04T11:51:37;3.58;;;2.78;;
68315;SDS011;55508;54.368;18.406;2022-08-04T11:54:05;3.88;;;2.38;;
68315;SDS011;55508;54.368;18.406;2022-08-04T11:56:32;2.55;;;2.05;;
68315;SDS011;55508;54.368;18.406;2022-08-04T11:59:04;3.28;;;2.08;;
68315;SDS011;55508;54.368;18.406;2022-08-04T12:01:35;3.60;;;1.92;;
68315;SDS011;55508;54.368;18.406;2022-08-04T12:06:51;3.15;;;2.60;;
68315;SDS011;55508;54.368;18.406;2022-08-04T12:09:47;3.00;;;2.70;;
68315;SDS011;55508;54.368;18.406;2022-08-04T12:13:04;5.75;;;2.70;;
68315;SDS011;55508;54.368;18.406;2022-08-04T12:15:30;3.22;;;2.30;;
68315;SDS011;55508;54.368;18.406;2022-08-04T12:20:38;3.30;;;2.78;;
68315;SDS011;55508;54.368;18.406;2022-08-04T12:23:29;3.15;;;2.50;;
68315;SDS011;55508;54.368;18.406;2022-08-04T12:26:01;8.70;;;2.65;;
68315;SDS011;55508;54.368;18.406;2022-08-04T12:28:32;9.10;;;2.58;;
68315;SDS011;55508;54.368;18.406;2022-08-04T12:34:22;3.45;;;2.78;;
68315;SDS011;55508;54.368;18.406;2022-08-04T12:40:03;3.75;;;2.75;;
68315;SDS011;55508;54.368;18.406;2022-08-04T12:43:02;3.85;;;2.40;;
68315;SDS011;55508;54.368;18.406;2022-08-04T12:45:34;2.63;;;2.42;;
68315;SDS011;55508;54.368;18.406;2022-08-04T12:48:02;3.10;;;2.90;;
68315;SDS011;55508;54.368;18.406;2022-08-04T12:50:31;4.18;;;2.58;;
68315;SDS011;55508;54.368;18.406;2022-08-04T12:52:59;7.53;;;2.38;;
68315;SDS011;55508;54.368;18.406;2022-08-04T12:55:29;3.55;;;2.53;;
68315;SDS011;55508;54.368;18.406;2022-08-04T12:57:57;4.32;;;2.63;;
68315;SDS011;55508;54.368;18.406;2022-08-04T13:00:28;4.50;;;2.30;;
68315;SDS011;55508;54.368;18.406;2022-08-04T13:03:11;4.00;;;2.30;;
68315;SDS011;55508;54.368;18.406;2022-08-04T13:05:40;4.32;;;2.42;;
68315;SDS011;55508;54.368;18.406;2022-08-04T13:08:11;3.40;;;2.63;;
68315;SDS011;55508;54.368;18.406;2022-08-04T13:10:43;3.53;;;3.20;;
68315;SDS011;55508;54.368;18.406;2022-08-04T13:13:14;4.35;;;2.70;;
68315;SDS011;55508;54.368;18.406;2022-08-04T13:15:55;2.20;;;2.00;;
68315;SDS011;55508;54.368;18.406;2022-08-04T13:18:28;7.88;;;2.67;;
68315;SDS011;55508;54.368;18.406;2022-08-04T13:24:06;3.28;;;3.05;;
68315;SDS011;55508;54.368;18.406;2022-08-04T13:27:04;2.72;;;2.53;;
68315;SDS011;55508;54.368;18.406;2022-08-04T13:29:48;2.72;;;2.42;;
68315;SDS011;55508;54.368;18.406;2022-08-04T13:32:28;5.95;;;2.70;;
68315;SDS011;55508;54.368;18.406;2022-08-04T13:34:59;2.67;;;2.40;;
68315;SDS011;55508;54.368;18.406;2022-08-04T13:37:31;4.00;;;2.45;;
68315;SDS011;55508;54.368;18.406;2022-08-04T13:40:04;2.60;;;2.38;;
68315;SDS011;55508;54.368;18.406;2022-08-04T13:42:33;6.25;;;2.22;;
68315;SDS011;55508;54.368;18.406;2022-08-04T13:45:02;4.68;;;2.50;;
68315;SDS011;55508;54.368;18.406;2022-08-04T13:47:30;3.30;;;2.63;;
68315;SDS011;55508;54.368;18.406;2022-08-04T13:52:53;8.32;;;2.33;;
68315;SDS011;55508;54.368;18.406;2022-08-04T13:55:29;6.85;;;2.70;;
68315;SDS011;55508;54.368;18.406;2022-08-04T13:58:02;5.10;;;2.70;;
68315;SDS011;55508;54.368;18.406;2022-08-04T14:00:53;3.63;;;2.50;;
68315;SDS011;55508;54.368;18.406;2022-08-04T14:08:54;2.72;;;2.25;;
68315;SDS011;55508;54.368;18.406;2022-08-04T14:11:33;4.38;;;2.53;;
68315;SDS011;55508;54.368;18.406;2022-08-04T14:14:27;3.53;;;2.75;;
68315;SDS011;55508;54.368;18.406;2022-08-04T14:17:11;5.30;;;2.50;;
68315;SDS011;55508;54.368;18.406;2022-08-04T14:19:47;3.47;;;2.80;;
68315;SDS011;55508;54.368;18.406;2022-08-04T14:25:00;37.97;;;4.32;;
68315;SDS011;55508;54.368;18.406;2022-08-04T14:30:31;5.88;;;2.95;;
68315;SDS011;55508;54.368;18.406;2022-08-04T14:33:08;2.83;;;2.33;;
68315;SDS011;55508;54.368;18.406;2022-08-04T14:35:57;3.58;;;2.40;;
68315;SDS011;55508;54.368;18.406;2022-08-04T14:41:27;2.60;;;2.40;;
68315;SDS011;55508;54.368;18.406;2022-08-04T14:43:57;3.88;;;2.60;;
68315;SDS011;55508;54.368;18.406;2022-08-04T14:46:28;2.85;;;2.60;;
68315;SDS011;55508;54.368;18.406;2022-08-04T14:51:38;4.13;;;2.72;;
68315;SDS011;55508;54.368;18.406;2022-08-04T14:54:11;4.35;;;2.67;;
68315;SDS011;55508;54.368;18.406;2022-08-04T14:56:51;5.00;;;2.47;;
68315;SDS011;55508;54.368;18.406;2022-08-04T14:59:20;3.90;;;2.53;;
68315;SDS011;55508;54.368;18.406;2022-08-04T15:01:47;4.90;;;2.70;;
68315;SDS011;55508;54.368;18.406;2022-08-04T15:04:27;2.80;;;2.42;;
68315;SDS011;55508;54.368;18.406;2022-08-04T15:06:55;6.05;;;2.75;;
68315;SDS011;55508;54.368;18.406;2022-08-04T15:09:22;4.78;;;2.80;;
68315;SDS011;55508;54.368;18.406;2022-08-04T15:11:49;6.78;;;2.65;;
68315;SDS011;55508;54.368;18.406;2022-08-04T15:14:17;5.30;;;2.67;;
68315;SDS011;55508;54.368;18.406;2022-08-04T15:17:04;3.05;;;2.75;;
68315;SDS011;55508;54.368;18.406;2022-08-04T15:19:52;6.03;;;2.67;;
68315;SDS011;55508;54.368;18.406;2022-08-04T15:22:21;5.55;;;2.60;;
68315;SDS011;55508;54.368;18.406;2022-08-04T15:24:49;2.97;;;2.70;;
68315;SDS011;55508;54.368;18.406;2022-08-04T15:27:20;3.55;;;2.65;;
68315;SDS011;55508;54.368;18.406;2022-08-04T15:29:51;2.92;;;2.60;;
68315;SDS011;55508;54.368;18.406;2022-08-04T15:32:27;3.08;;;2.70;;
68315;SDS011;55508;54.368;18.406;2022-08-04T15:35:03;3.40;;;2.40;;
68315;SDS011;55508;54.368;18.406;2022-08-04T15:41:07;60.75;;;6.15;;
68315;SDS011;55508;54.368;18.406;2022-08-04T15:49:22;2.95;;;2.67;;
68315;SDS011;55508;54.368;18.406;2022-08-04T15:52:04;6.30;;;2.70;;
68315;SDS011;55508;54.368;18.406;2022-08-04T15:54:44;3.90;;;2.60;;
68315;SDS011;55508;54.368;18.406;2022-08-04T15:57:55;2.90;;;2.65;;
68315;SDS011;55508;54.368;18.406;2022-08-04T16:00:24;2.83;;;2.60;;
68315;SDS011;55508;54.368;18.406;2022-08-04T16:02:52;2.85;;;2.65;;
68315;SDS011;55508;54.368;18.406;2022-08-04T16:10:41;3.05;;;2.60;;
68315;SDS011;55508;54.368;18.406;2022-08-04T16:13:11;5.73;;;2.50;;
68315;SDS011;55508;54.368;18.406;2022-08-04T16:15:44;10.52;;;2.97;;
68315;SDS011;55508;54.368;18.406;2022-08-04T16:20:53;10.15;;;3.17;;
68315;SDS011;55508;54.368;18.406;2022-08-04T16:26:51;5.90;;;2.80;;
68315;SDS011;55508;54.368;18.406;2022-08-04T16:29:29;4.65;;;2.97;;
68315;SDS011;55508;54.368;18.406;2022-08-04T16:34:31;3.40;;;3.10;;
68315;SDS011;55508;54.368;18.406;2022-08-04T16:37:19;3.42;;;3.15;;
68315;SDS011;55508;54.368;18.406;2022-08-04T16:39:46;5.63;;;3.00;;
68315;SDS011;55508;54.368;18.406;2022-08-04T16:55:22;7.72;;;3.03;;
68315;SDS011;55508;54.368;18.406;2022-08-04T16:57:51;12.70;;;3.30;;
68315;SDS011;55508;54.368;18.406;2022-08-04T17:00:32;7.20;;;2.90;;
68315;SDS011;55508;54.368;18.406;2022-08-04T17:03:02;8.23;;;3.30;;
68315;SDS011;55508;54.368;18.406;2022-08-04T17:05:33;4.25;;;3.25;;
68315;SDS011;55508;54.368;18.406;2022-08-04T17:08:05;7.47;;;3.10;;
68315;SDS011;55508;54.368;18.406;2022-08-04T17:10:54;4.07;;;3.25;;
68315;SDS011;55508;54.368;18.406;2022-08-04T17:13:36;11.48;;;3.00;;
68315;SDS011;55508;54.368;18.406;2022-08-04T17:16:25;6.28;;;3.25;;
68315;SDS011;55508;54.368;18.406;2022-08-04T17:18:54;6.70;;;3.15;;
68315;SDS011;55508;54.368;18.406;2022-08-04T17:21:23;3.80;;;3.33;;
68315;SDS011;55508;54.368;18.406;2022-08-04T17:23:52;8.75;;;3.50;;
68315;SDS011;55508;54.368;18.406;2022-08-04T17:26:41;7.03;;;3.67;;
68315;SDS011;55508;54.368;18.406;2022-08-04T17:29:19;3.78;;;3.47;;
68315;SDS011;55508;54.368;18.406;2022-08-04T17:31:47;31.35;;;5.15;;
68315;SDS011;55508;54.368;18.406;2022-08-04T17:36:47;6.60;;;4.00;;
68315;SDS011;55508;54.368;18.406;2022-08-04T17:39:16;9.18;;;4.43;;
68315;SDS011;55508;54.368;18.406;2022-08-04T17:41:47;5.40;;;3.53;;
68315;SDS011;55508;54.368;18.406;2022-08-04T17:44:35;5.05;;;3.42;;
68315;SDS011;55508;54.368;18.406;2022-08-04T17:47:06;7.28;;;3.65;;
68315;SDS011;55508;54.368;18.406;2022-08-04T17:49:44;8.30;;;4.00;;
68315;SDS011;55508;54.368;18.406;2022-08-04T17:52:19;6.70;;;3.63;;
68315;SDS011;55508;54.368;18.406;2022-08-04T17:55:07;49.03;;;6.90;;
68315;SDS011;55508;54.368;18.406;2022-08-04T17:57:45;11.82;;;4.03;;
68315;SDS011;55508;54.368;18.406;2022-08-04T18:00:18;81.32;;;9.18;;
68315;SDS011;55508;54.368;18.406;2022-08-04T18:02:51;24.85;;;5.30;;
68315;SDS011;55508;54.368;18.406;2022-08-04T18:05:26;21.17;;;4.63;;
68315;SDS011;55508;54.368;18.406;2022-08-04T18:08:14;7.80;;;4.40;;
68315;SDS011;55508;54.368;18.406;2022-08-04T18:11:01;11.68;;;4.85;;
68315;SDS011;55508;54.368;18.406;2022-08-04T18:13:28;20.80;;;4.78;;
68315;SDS011;55508;54.368;18.406;2022-08-04T18:16:08;14.30;;;4.30;;
68315;SDS011;55508;54.368;18.406;2022-08-04T18:21:34;8.40;;;4.30;;
68315;SDS011;55508;54.368;18.406;2022-08-04T18:24:21;6.20;;;4.38;;
68315;SDS011;55508;54.368;18.406;2022-08-04T18:27:01;6.05;;;4.68;;
68315;SDS011;55508;54.368;18.406;2022-08-04T18:29:32;16.98;;;4.40;;
68315;SDS011;55508;54.368;18.406;2022-08-04T18:32:05;10.82;;;4.53;;
68315;SDS011;55508;54.368;18.406;2022-08-04T18:34:34;8.10;;;4.57;;
68315;SDS011;55508;54.368;18.406;2022-08-04T18:37:19;15.32;;;5.40;;
68315;SDS011;55508;54.368;18.406;2022-08-04T18:40:07;11.35;;;4.90;;
68315;SDS011;55508;54.368;18.406;2022-08-04T18:42:55;22.33;;;5.65;;
68315;SDS011;55508;54.368;18.406;2022-08-04T18:45:25;10.75;;;4.95;;
68315;SDS011;55508;54.368;18.406;2022-08-04T18:48:01;8.82;;;5.15;;
68315;SDS011;55508;54.368;18.406;2022-08-04T18:50:40;6.88;;;5.43;;
68315;SDS011;55508;54.368;18.406;2022-08-04T18:53:28;11.45;;;5.50;;
68315;SDS011;55508;54.368;18.406;2022-08-04T18:56:02;6.05;;;4.93;;
68315;SDS011;55508;54.368;18.406;2022-08-04T18:58:41;7.15;;;5.20;;
68315;SDS011;55508;54.368;18.406;2022-08-04T19:01:10;15.05;;;5.13;;
68315;SDS011;55508;54.368;18.406;2022-08-04T19:03:40;7.50;;;4.47;;
68315;SDS011;55508;54.368;18.406;2022-08-04T19:06:12;11.63;;;4.95;;
68315;SDS011;55508;54.368;18.406;2022-08-04T19:08:41;16.20;;;5.82;;
68315;SDS011;55508;54.368;18.406;2022-08-04T19:11:10;12.80;;;5.20;;
68315;SDS011;55508;54.368;18.406;2022-08-04T19:14:02;8.80;;;5.15;;
68315;SDS011;55508;54.368;18.406;2022-08-04T19:16:30;9.00;;;4.97;;
68315;SDS011;55508;54.368;18.406;2022-08-04T19:19:00;10.45;;;5.18;;
68315;SDS011;55508;54.368;18.406;2022-08-04T19:21:31;13.07;;;5.15;;
68315;SDS011;55508;54.368;18.406;2022-08-04T19:24:19;13.93;;;5.32;;
68315;SDS011;55508;54.368;18.406;2022-08-04T19:27:00;18.35;;;5.05;;
68315;SDS011;55508;54.368;18.406;2022-08-04T19:29:34;13.38;;;5.32;;
68315;SDS011;55508;54.368;18.406;2022-08-04T19:32:06;7.78;;;5.25;;
68315;SDS011;55508;54.368;18.406;2022-08-04T19:34:39;14.35;;;5.38;;
68315;SDS011;55508;54.368;18.406;2022-08-04T19:37:12;11.25;;;5.40;;
68315;SDS011;55508;54.368;18.406;2022-08-04T19:40:04;9.90;;;5.50;;
68315;SDS011;55508;54.368;18.406;2022-08-04T19:42:33;12.02;;;5.70;;
68315;SDS011;55508;54.368;18.406;2022-08-04T19:45:00;7.88;;;5.47;;
68315;SDS011;55508;54.368;18.406;2022-08-04T19:47:28;10.07;;;5.45;;
68315;SDS011;55508;54.368;18.406;2022-08-04T19:50:15;15.13;;;5.85;;
68315;SDS011;55508;54.368;18.406;2022-08-04T19:52:42;8.02;;;5.93;;
68315;SDS011;55508;54.368;18.406;2022-08-04T19:55:30;9.43;;;5.45;;
68315;SDS011;55508;54.368;18.406;2022-08-04T19:58:04;7.18;;;5.90;;
68315;SDS011;55508;54.368;18.406;2022-08-04T20:00:35;11.30;;;5.90;;
68315;SDS011;55508;54.368;18.406;2022-08-04T20:03:07;10.15;;;5.75;;
68315;SDS011;55508;54.368;18.406;2022-08-04T20:05:38;15.27;;;6.13;;
68315;SDS011;55508;54.368;18.406;2022-08-04T20:08:29;54.53;;;8.32;;
68315;SDS011;55508;54.368;18.406;2022-08-04T20:10:57;25.40;;;7.05;;
68315;SDS011;55508;54.368;18.406;2022-08-04T20:13:25;20.38;;;7.35;;
68315;SDS011;55508;54.368;18.406;2022-08-04T20:16:04;8.07;;;6.78;;
68315;SDS011;55508;54.368;18.406;2022-08-04T20:18:52;10.35;;;6.82;;
68315;SDS011;55508;54.368;18.406;2022-08-04T20:21:25;12.48;;;6.65;;
68315;SDS011;55508;54.368;18.406;2022-08-04T20:24:14;7.65;;;6.90;;
68315;SDS011;55508;54.368;18.406;2022-08-04T20:27:02;11.57;;;7.00;;
68315;SDS011;55508;54.368;18.406;2022-08-04T20:29:33;11.57;;;6.90;;
68315;SDS011;55508;54.368;18.406;2022-08-04T20:32:06;9.70;;;6.97;;
68315;SDS011;55508;54.368;18.406;2022-08-04T20:34:36;11.05;;;7.03;;
68315;SDS011;55508;54.368;18.406;2022-08-04T20:37:07;8.23;;;6.85;;
68315;SDS011;55508;54.368;18.406;2022-08-04T20:39:36;15.80;;;7.28;;